sensor_id;sensor_type;location;lat;lon;timestamp;P1;durP1;ratioP1;P2;durP2;ratioP2
1811;SDS011;904;47.814;11.134;2023-04-28T00:00:09;5.50;;;3.70;;
1811;SDS011;904;47.814;11.134;2023-04-28T00:02:42;6.28;;;4.13;;
1811;SDS011;904;47.814;11.134;2023-04-28T00:05:15;4.40;;;2.97;;
1811;SDS011;904;47.814;11.134;2023-04-28T00:07:45;6.75;;;2.92;;
1811;SDS011;904;47.814;11.134;2023-04-28T00:10:14;4.05;;;2.67;;
1811;SDS011;904;47.814;11.134;2023-04-28T00:12:43;4.15;;;3.15;;
1811;SDS011;904;47.814;11.134;2023-04-28T00:15:11;4.15;;;3.13;;
1811;SDS011;904;47.814;11.134;2023-04-28T00:17:38;4.40;;;3.40;;
1811;SDS011;904;47.814;11.134;2023-04-28T00:20:06;5.53;;;3.78;;
1811;SDS011;904;47.814;11.134;2023-04-28T00:22:35;4.80;;;3.45;;
1811;SDS011;904;47.814;11.134;2023-04-28T00:25:06;5.93;;;3.58;;
1811;SDS011;904;47.814;11.134;2023-04-28T00:27:37;5.75;;;3.30;;
1811;SDS011;904;47.814;11.134;2023-04-28T00:30:05;5.30;;;2.92;;
1811;SDS011;904;47.814;11.134;2023-04-28T00:32:33;4.00;;;3.30;;
1811;SDS011;904;47.814;11.134;2023-04-28T00:35:01;4.95;;;2.80;;
1811;SDS011;904;47.814;11.134;2023-04-28T00:37:31;7.78;;;2.67;;
1811;SDS011;904;47.814;11.134;2023-04-28T00:40:02;8.00;;;3.10;;
1811;SDS011;904;47.814;11.134;2023-04-28T00:42:35;4.68;;;2.85;;
1811;SDS011;904;47.814;11.134;2023-04-28T00:45:04;7.72;;;2.90;;
1811;SDS011;904;47.814;11.134;2023-04-28T00:47:32;5.30;;;3.10;;
1811;SDS011;904;47.814;11.134;2023-04-28T00:50:25;4.50;;;3.50;;
1811;SDS011;904;47.814;11.134;2023-04-28T00:52:52;7.35;;;3.15;;
1811;SDS011;904;47.814;11.134;2023-04-28T00:55:20;5.28;;;2.47;;
1811;SDS011;904;47.814;11.134;2023-04-28T00:57:50;4.32;;;2.90;;
1811;SDS011;904;47.814;11.134;2023-04-28T01:00:17;5.57;;;2.53;;
1811;SDS011;904;47.814;11.134;2023-04-28T01:02:45;3.10;;;2.10;;
1811;SDS011;904;47.814;11.134;2023-04-28T01:05:17;3.00;;;2.00;;
1811;SDS011;904;47.814;11.134;2023-04-28T01:07:48;3.58;;;2.63;;
1811;SDS011;904;47.814;11.134;2023-04-28T01:10:15;4.20;;;3.28;;
1811;SDS011;904;47.814;11.134;2023-04-28T01:12:45;6.28;;;3.67;;
1811;SDS011;904;47.814;11.134;2023-04-28T01:15:16;3.80;;;2.47;;
1811;SDS011;904;47.814;11.134;2023-04-28T01:17:44;4.13;;;2.85;;
1811;SDS011;904;47.814;11.134;2023-04-28T01:20:11;3.40;;;2.50;;
1811;SDS011;904;47.814;11.134;2023-04-28T01:22:39;4.05;;;2.70;;
1811;SDS011;904;47.814;11.134;2023-04-28T01:25:08;5.53;;;2.97;;
1811;SDS011;904;47.814;11.134;2023-04-28T01:27:37;5.13;;;3.00;;
1811;SDS011;904;47.814;11.134;2023-04-28T01:30:05;5.05;;;2.90;;
1811;SDS011;904;47.814;11.134;2023-04-28T01:32:34;4.53;;;2.65;;
1811;SDS011;904;47.814;11.134;2023-04-28T01:35:05;4.35;;;2.55;;
1811;SDS011;904;47.814;11.134;2023-04-28T01:37:33;4.13;;;2.78;;
1811;SDS011;904;47.814;11.134;2023-04-28T01:40:01;4.50;;;2.47;;
1811;SDS011;904;47.814;11.134;2023-04-28T01:42:30;3.00;;;2.05;;
1811;SDS011;904;47.814;11.134;2023-04-28T01:44:58;4.78;;;4.28;;
1811;SDS011;904;47.814;11.134;2023-04-28T01:47:25;4.40;;;2.80;;
1811;SDS011;904;47.814;11.134;2023-04-28T01:49:52;5.28;;;2.10;;
1811;SDS011;904;47.814;11.134;2023-04-28T01:52:23;3.53;;;2.47;;
1811;SDS011;904;47.814;11.134;2023-04-28T01:54:52;4.20;;;2.97;;
1811;SDS011;904;47.814;11.134;2023-04-28T01:57:21;3.03;;;2.67;;
1811;SDS011;904;47.814;11.134;2023-04-28T01:59:51;3.78;;;2.42;;
1811;SDS011;904;47.814;11.134;2023-04-28T02:02:19;3.22;;;2.25;;
1811;SDS011;904;47.814;11.134;2023-04-28T02:04:49;6.72;;;2.30;;
1811;SDS011;904;47.814;11.134;2023-04-28T02:07:18;4.63;;;2.28;;
1811;SDS011;904;47.814;11.134;2023-04-28T02:09:46;3.10;;;2.60;;
1811;SDS011;904;47.814;11.134;2023-04-28T02:12:19;4.07;;;2.53;;
1811;SDS011;904;47.814;11.134;2023-04-28T02:14:48;5.43;;;2.83;;
1811;SDS011;904;47.814;11.134;2023-04-28T02:17:17;3.35;;;2.17;;
1811;SDS011;904;47.814;11.134;2023-04-28T02:19:44;3.00;;;2.22;;
1811;SDS011;904;47.814;11.134;2023-04-28T02:22:12;5.05;;;2.67;;
1811;SDS011;904;47.814;11.134;2023-04-28T02:24:39;4.25;;;2.70;;
1811;SDS011;904;47.814;11.134;2023-04-28T02:27:11;3.05;;;2.17;;
1811;SDS011;904;47.814;11.134;2023-04-28T02:29:40;3.80;;;2.90;;
1811;SDS011;904;47.814;11.134;2023-04-28T02:32:09;3.80;;;2.80;;
1811;SDS011;904;47.814;11.134;2023-04-28T02:34:37;4.10;;;2.92;;
1811;SDS011;904;47.814;11.134;2023-04-28T02:37:06;4.13;;;2.72;;
1811;SDS011;904;47.814;11.134;2023-04-28T02:39:34;8.98;;;2.63;;
1811;SDS011;904;47.814;11.134;2023-04-28T02:42:02;3.85;;;2.60;;
1811;SDS011;904;47.814;11.134;2023-04-28T02:44:30;4.00;;;2.80;;
1811;SDS011;904;47.814;11.134;2023-04-28T02:46:57;4.47;;;3.13;;
1811;SDS011;904;47.814;11.134;2023-04-28T02:49:27;4.60;;;3.35;;
1811;SDS011;904;47.814;11.134;2023-04-28T02:51:56;3.97;;;2.90;;
1811;SDS011;904;47.814;11.134;2023-04-28T02:54:24;4.45;;;3.10;;
1811;SDS011;904;47.814;11.134;2023-04-28T02:56:54;4.45;;;2.47;;
1811;SDS011;904;47.814;11.134;2023-04-28T02:59:24;4.22;;;2.88;;
1811;SDS011;904;47.814;11.134;2023-04-28T03:01:51;3.78;;;2.47;;
1811;SDS011;904;47.814;11.134;2023-04-28T03:04:20;4.30;;;2.42;;
1811;SDS011;904;47.814;11.134;2023-04-28T03:06:49;4.22;;;2.47;;
1811;SDS011;904;47.814;11.134;2023-04-28T03:09:16;5.10;;;2.25;;
1811;SDS011;904;47.814;11.134;2023-04-28T03:11:43;3.55;;;2.80;;
1811;SDS011;904;47.814;11.134;2023-04-28T03:14:11;4.10;;;3.10;;
1811;SDS011;904;47.814;11.134;2023-04-28T03:16:40;4.20;;;3.05;;
1811;SDS011;904;47.814;11.134;2023-04-28T03:19:07;3.80;;;2.30;;
1811;SDS011;904;47.814;11.134;2023-04-28T03:21:34;3.50;;;2.20;;
1811;SDS011;904;47.814;11.134;2023-04-28T03:24:06;4.35;;;2.50;;
1811;SDS011;904;47.814;11.134;2023-04-28T03:26:33;4.20;;;2.45;;
1811;SDS011;904;47.814;11.134;2023-04-28T03:29:01;4.57;;;2.60;;
1811;SDS011;904;47.814;11.134;2023-04-28T03:31:28;4.32;;;3.08;;
1811;SDS011;904;47.814;11.134;2023-04-28T03:33:56;4.07;;;2.85;;
1811;SDS011;904;47.814;11.134;2023-04-28T03:36:24;3.95;;;2.80;;
1811;SDS011;904;47.814;11.134;2023-04-28T03:39:01;4.40;;;2.50;;
1811;SDS011;904;47.814;11.134;2023-04-28T03:41:30;4.15;;;2.58;;
1811;SDS011;904;47.814;11.134;2023-04-28T03:43:57;3.40;;;2.47;;
1811;SDS011;904;47.814;11.134;2023-04-28T03:46:25;3.15;;;2.38;;
1811;SDS011;904;47.814;11.134;2023-04-28T03:48:56;5.25;;;2.30;;
1811;SDS011;904;47.814;11.134;2023-04-28T03:51:25;3.95;;;2.85;;
1811;SDS011;904;47.814;11.134;2023-04-28T03:53:53;4.25;;;2.72;;
1811;SDS011;904;47.814;11.134;2023-04-28T03:56:22;8.75;;;2.70;;
1811;SDS011;904;47.814;11.134;2023-04-28T03:58:51;4.25;;;2.55;;
1811;SDS011;904;47.814;11.134;2023-04-28T04:01:19;3.00;;;2.13;;
1811;SDS011;904;47.814;11.134;2023-04-28T04:03:46;3.33;;;2.47;;
1811;SDS011;904;47.814;11.134;2023-04-28T04:06:14;4.20;;;2.65;;
1811;SDS011;904;47.814;11.134;2023-04-28T04:08:41;4.30;;;2.35;;
1811;SDS011;904;47.814;11.134;2023-04-28T04:11:14;3.63;;;2.40;;
1811;SDS011;904;47.814;11.134;2023-04-28T04:13:42;4.22;;;2.72;;
1811;SDS011;904;47.814;11.134;2023-04-28T04:16:15;3.38;;;2.28;;
1811;SDS011;904;47.814;11.134;2023-04-28T04:18:42;4.50;;;3.15;;
1811;SDS011;904;47.814;11.134;2023-04-28T04:21:15;5.25;;;3.13;;
1811;SDS011;904;47.814;11.134;2023-04-28T04:23:42;7.85;;;3.67;;
1811;SDS011;904;47.814;11.134;2023-04-28T04:26:10;5.32;;;3.92;;
1811;SDS011;904;47.814;11.134;2023-04-28T04:28:42;13.93;;;12.30;;
1811;SDS011;904;47.814;11.134;2023-04-28T04:31:12;7.45;;;6.07;;
1811;SDS011;904;47.814;11.134;2023-04-28T04:33:42;4.10;;;3.35;;
1811;SDS011;904;47.814;11.134;2023-04-28T04:36:09;5.18;;;3.10;;
1811;SDS011;904;47.814;11.134;2023-04-28T04:38:43;5.85;;;4.00;;
1811;SDS011;904;47.814;11.134;2023-04-28T04:41:16;4.63;;;3.40;;
1811;SDS011;904;47.814;11.134;2023-04-28T04:43:44;4.47;;;3.33;;
1811;SDS011;904;47.814;11.134;2023-04-28T04:46:12;6.32;;;3.25;;
1811;SDS011;904;47.814;11.134;2023-04-28T04:48:45;3.67;;;2.80;;
1811;SDS011;904;47.814;11.134;2023-04-28T04:51:13;3.80;;;2.45;;
1811;SDS011;904;47.814;11.134;2023-04-28T04:53:40;5.50;;;3.30;;
1811;SDS011;904;47.814;11.134;2023-04-28T04:56:07;3.92;;;2.85;;
1811;SDS011;904;47.814;11.134;2023-04-28T04:58:35;4.80;;;3.28;;
1811;SDS011;904;47.814;11.134;2023-04-28T05:01:02;5.38;;;3.55;;
1811;SDS011;904;47.814;11.134;2023-04-28T05:03:32;4.10;;;3.70;;
1811;SDS011;904;47.814;11.134;2023-04-28T05:06:00;4.25;;;3.38;;
1811;SDS011;904;47.814;11.134;2023-04-28T05:08:31;5.40;;;3.60;;
1811;SDS011;904;47.814;11.134;2023-04-28T05:10:58;4.00;;;3.20;;
1811;SDS011;904;47.814;11.134;2023-04-28T05:13:28;5.80;;;3.55;;
1811;SDS011;904;47.814;11.134;2023-04-28T05:15:55;5.53;;;3.80;;
1811;SDS011;904;47.814;11.134;2023-04-28T05:18:25;9.40;;;4.40;;
1811;SDS011;904;47.814;11.134;2023-04-28T05:20:54;5.45;;;3.60;;
1811;SDS011;904;47.814;11.134;2023-04-28T05:23:22;3.97;;;2.95;;
1811;SDS011;904;47.814;11.134;2023-04-28T05:25:50;5.00;;;4.13;;
1811;SDS011;904;47.814;11.134;2023-04-28T05:28:17;7.20;;;4.57;;
1811;SDS011;904;47.814;11.134;2023-04-28T05:30:49;6.05;;;4.25;;
1811;SDS011;904;47.814;11.134;2023-04-28T05:33:17;5.82;;;3.80;;
1811;SDS011;904;47.814;11.134;2023-04-28T05:35:44;4.75;;;3.30;;
1811;SDS011;904;47.814;11.134;2023-04-28T05:38:14;5.13;;;3.30;;
1811;SDS011;904;47.814;11.134;2023-04-28T05:40:41;7.25;;;4.53;;
1811;SDS011;904;47.814;11.134;2023-04-28T05:43:08;8.75;;;6.10;;
1811;SDS011;904;47.814;11.134;2023-04-28T05:45:36;7.18;;;6.28;;
1811;SDS011;904;47.814;11.134;2023-04-28T05:48:04;5.50;;;4.55;;
1811;SDS011;904;47.814;11.134;2023-04-28T05:50:32;4.78;;;3.25;;
1811;SDS011;904;47.814;11.134;2023-04-28T05:52:59;6.70;;;3.25;;
1811;SDS011;904;47.814;11.134;2023-04-28T05:55:28;7.30;;;5.95;;
1811;SDS011;904;47.814;11.134;2023-04-28T05:57:56;5.15;;;2.65;;
1811;SDS011;904;47.814;11.134;2023-04-28T06:00:24;6.07;;;2.60;;
1811;SDS011;904;47.814;11.134;2023-04-28T06:02:52;4.13;;;2.45;;
1811;SDS011;904;47.814;11.134;2023-04-28T06:05:21;4.70;;;2.20;;
1811;SDS011;904;47.814;11.134;2023-04-28T06:07:48;4.57;;;2.00;;
1811;SDS011;904;47.814;11.134;2023-04-28T06:10:16;3.65;;;2.05;;
1811;SDS011;904;47.814;11.134;2023-04-28T06:12:45;3.13;;;1.70;;
1811;SDS011;904;47.814;11.134;2023-04-28T06:15:13;2.95;;;1.90;;
1811;SDS011;904;47.814;11.134;2023-04-28T06:17:40;2.85;;;1.70;;
1811;SDS011;904;47.814;11.134;2023-04-28T06:20:08;2.30;;;1.77;;
1811;SDS011;904;47.814;11.134;2023-04-28T06:22:38;3.90;;;1.27;;
1811;SDS011;904;47.814;11.134;2023-04-28T06:25:05;5.55;;;1.83;;
1811;SDS011;904;47.814;11.134;2023-04-28T06:27:33;4.05;;;2.30;;
1811;SDS011;904;47.814;11.134;2023-04-28T06:30:02;4.00;;;2.28;;
1811;SDS011;904;47.814;11.134;2023-04-28T06:32:30;5.35;;;3.13;;
1811;SDS011;904;47.814;11.134;2023-04-28T06:34:57;3.17;;;1.77;;
1811;SDS011;904;47.814;11.134;2023-04-28T06:37:27;5.53;;;2.08;;
1811;SDS011;904;47.814;11.134;2023-04-28T06:39:55;3.83;;;2.22;;
1811;SDS011;904;47.814;11.134;2023-04-28T06:42:22;2.95;;;1.73;;
1811;SDS011;904;47.814;11.134;2023-04-28T06:44:49;3.65;;;1.80;;
1811;SDS011;904;47.814;11.134;2023-04-28T06:47:18;2.60;;;2.03;;
1811;SDS011;904;47.814;11.134;2023-04-28T06:49:45;4.32;;;2.30;;
1811;SDS011;904;47.814;11.134;2023-04-28T06:52:14;3.13;;;1.80;;
1811;SDS011;904;47.814;11.134;2023-04-28T06:54:41;3.05;;;2.28;;
1811;SDS011;904;47.814;11.134;2023-04-28T06:57:10;4.70;;;2.35;;
1811;SDS011;904;47.814;11.134;2023-04-28T06:59:43;4.70;;;2.30;;
1811;SDS011;904;47.814;11.134;2023-04-28T07:02:10;4.47;;;1.98;;
1811;SDS011;904;47.814;11.134;2023-04-28T07:04:39;5.03;;;2.60;;
1811;SDS011;904;47.814;11.134;2023-04-28T07:07:07;4.47;;;2.58;;
1811;SDS011;904;47.814;11.134;2023-04-28T07:09:35;4.80;;;2.30;;
1811;SDS011;904;47.814;11.134;2023-04-28T07:12:02;3.70;;;2.58;;
1811;SDS011;904;47.814;11.134;2023-04-28T07:14:32;2.90;;;2.00;;
1811;SDS011;904;47.814;11.134;2023-04-28T07:17:00;6.13;;;2.20;;
1811;SDS011;904;47.814;11.134;2023-04-28T07:19:28;5.25;;;2.10;;
1811;SDS011;904;47.814;11.134;2023-04-28T07:21:57;4.18;;;2.28;;
1811;SDS011;904;47.814;11.134;2023-04-28T07:24:25;2.40;;;1.60;;
1811;SDS011;904;47.814;11.134;2023-04-28T07:26:52;2.90;;;1.55;;
1811;SDS011;904;47.814;11.134;2023-04-28T07:29:20;4.07;;;2.25;;
1811;SDS011;904;47.814;11.134;2023-04-28T07:31:48;3.10;;;2.20;;
1811;SDS011;904;47.814;11.134;2023-04-28T07:34:15;2.70;;;1.90;;
1811;SDS011;904;47.814;11.134;2023-04-28T07:36:42;4.37;;;1.70;;
1811;SDS011;904;47.814;11.134;2023-04-28T07:39:11;3.10;;;1.50;;
1811;SDS011;904;47.814;11.134;2023-04-28T07:41:39;3.50;;;1.80;;
1811;SDS011;904;47.814;11.134;2023-04-28T07:44:06;2.30;;;1.37;;
1811;SDS011;904;47.814;11.134;2023-04-28T07:46:34;2.90;;;1.45;;
1811;SDS011;904;47.814;11.134;2023-04-28T07:49:01;2.20;;;1.50;;
1811;SDS011;904;47.814;11.134;2023-04-28T07:51:29;2.40;;;1.20;;
1811;SDS011;904;47.814;11.134;2023-04-28T07:53:57;3.37;;;1.60;;
1811;SDS011;904;47.814;11.134;2023-04-28T07:56:25;3.55;;;2.28;;
1811;SDS011;904;47.814;11.134;2023-04-28T07:58:53;3.30;;;1.73;;
1811;SDS011;904;47.814;11.134;2023-04-28T08:01:20;3.03;;;1.77;;
1811;SDS011;904;47.814;11.134;2023-04-28T08:03:47;3.33;;;1.90;;
1811;SDS011;904;47.814;11.134;2023-04-28T08:06:19;2.70;;;1.57;;
1811;SDS011;904;47.814;11.134;2023-04-28T08:08:46;3.77;;;2.07;;
1811;SDS011;904;47.814;11.134;2023-04-28T08:11:13;2.50;;;1.70;;
1811;SDS011;904;47.814;11.134;2023-04-28T08:13:42;2.70;;;1.43;;
1811;SDS011;904;47.814;11.134;2023-04-28T08:16:09;2.70;;;1.83;;
1811;SDS011;904;47.814;11.134;2023-04-28T08:18:37;2.43;;;1.37;;
1811;SDS011;904;47.814;11.134;2023-04-28T08:21:04;2.30;;;1.20;;
1811;SDS011;904;47.814;11.134;2023-04-28T08:23:32;2.47;;;1.53;;
1811;SDS011;904;47.814;11.134;2023-04-28T08:25:59;2.20;;;1.23;;
1811;SDS011;904;47.814;11.134;2023-04-28T08:28:29;4.83;;;1.97;;
1811;SDS011;904;47.814;11.134;2023-04-28T08:30:59;4.20;;;2.10;;
1811;SDS011;904;47.814;11.134;2023-04-28T08:33:26;2.40;;;1.30;;
1811;SDS011;904;47.814;11.134;2023-04-28T08:35:54;3.97;;;1.20;;
1811;SDS011;904;47.814;11.134;2023-04-28T08:38:21;2.10;;;1.00;;
1811;SDS011;904;47.814;11.134;2023-04-28T08:40:49;5.60;;;1.20;;
1811;SDS011;904;47.814;11.134;2023-04-28T08:43:16;2.10;;;1.10;;
1811;SDS011;904;47.814;11.134;2023-04-28T08:45:45;4.07;;;0.90;;
1811;SDS011;904;47.814;11.134;2023-04-28T08:48:19;2.20;;;1.07;;
1811;SDS011;904;47.814;11.134;2023-04-28T08:50:48;3.60;;;2.40;;
1811;SDS011;904;47.814;11.134;2023-04-28T08:53:18;4.00;;;2.20;;
1811;SDS011;904;47.814;11.134;2023-04-28T08:55:50;4.20;;;2.20;;
1811;SDS011;904;47.814;11.134;2023-04-28T08:58:21;2.40;;;1.03;;
1811;SDS011;904;47.814;11.134;2023-04-28T09:00:49;2.93;;;1.03;;
1811;SDS011;904;47.814;11.134;2023-04-28T09:03:17;2.20;;;1.20;;
1811;SDS011;904;47.814;11.134;2023-04-28T09:05:46;3.73;;;1.00;;
1811;SDS011;904;47.814;11.134;2023-04-28T09:08:13;2.93;;;1.50;;
1811;SDS011;904;47.814;11.134;2023-04-28T09:10:42;2.13;;;1.33;;
1811;SDS011;904;47.814;11.134;2023-04-28T09:13:09;2.43;;;1.20;;
1811;SDS011;904;47.814;11.134;2023-04-28T09:15:50;2.17;;;1.10;;
1811;SDS011;904;47.814;11.134;2023-04-28T09:18:26;2.30;;;1.20;;
1811;SDS011;904;47.814;11.134;2023-04-28T09:21:01;2.27;;;1.03;;
1811;SDS011;904;47.814;11.134;2023-04-28T09:23:29;5.60;;;1.60;;
1811;SDS011;904;47.814;11.134;2023-04-28T09:26:01;3.17;;;1.37;;
1811;SDS011;904;47.814;11.134;2023-04-28T09:28:30;3.20;;;1.10;;
1811;SDS011;904;47.814;11.134;2023-04-28T09:30:58;2.50;;;1.23;;
1811;SDS011;904;47.814;11.134;2023-04-28T09:33:27;2.70;;;1.30;;
1811;SDS011;904;47.814;11.134;2023-04-28T09:35:55;3.30;;;1.90;;
1811;SDS011;904;47.814;11.134;2023-04-28T09:38:23;3.30;;;1.70;;
1811;SDS011;904;47.814;11.134;2023-04-28T09:40:51;2.50;;;1.17;;
1811;SDS011;904;47.814;11.134;2023-04-28T09:43:23;2.90;;;1.50;;
1811;SDS011;904;47.814;11.134;2023-04-28T09:45:55;3.27;;;1.70;;
1811;SDS011;904;47.814;11.134;2023-04-28T09:48:31;2.70;;;1.40;;
1811;SDS011;904;47.814;11.134;2023-04-28T09:51:00;2.10;;;0.93;;
1811;SDS011;904;47.814;11.134;2023-04-28T09:53:28;2.97;;;1.23;;
1811;SDS011;904;47.814;11.134;2023-04-28T09:55:58;2.97;;;1.97;;
1811;SDS011;904;47.814;11.134;2023-04-28T09:58:27;3.77;;;2.90;;
1811;SDS011;904;47.814;11.134;2023-04-28T10:00:57;4.33;;;3.60;;
1811;SDS011;904;47.814;11.134;2023-04-28T10:03:25;3.70;;;2.60;;
1811;SDS011;904;47.814;11.134;2023-04-28T10:05:56;2.77;;;1.53;;
1811;SDS011;904;47.814;11.134;2023-04-28T10:08:25;3.57;;;2.07;;
1811;SDS011;904;47.814;11.134;2023-04-28T10:10:53;3.70;;;1.70;;
1811;SDS011;904;47.814;11.134;2023-04-28T10:13:22;3.30;;;1.77;;
1811;SDS011;904;47.814;11.134;2023-04-28T10:15:54;3.60;;;1.90;;
1811;SDS011;904;47.814;11.134;2023-04-28T10:18:22;2.43;;;1.50;;
1811;SDS011;904;47.814;11.134;2023-04-28T10:20:52;6.33;;;1.60;;
1811;SDS011;904;47.814;11.134;2023-04-28T10:26:18;2.20;;;0.90;;
1811;SDS011;904;47.814;11.134;2023-04-28T10:28:49;3.80;;;1.30;;
1811;SDS011;904;47.814;11.134;2023-04-28T10:31:17;2.20;;;1.20;;
1811;SDS011;904;47.814;11.134;2023-04-28T10:33:47;1.80;;;1.03;;
1811;SDS011;904;47.814;11.134;2023-04-28T10:39:14;1.93;;;1.00;;
1811;SDS011;904;47.814;11.134;2023-04-28T10:41:42;5.23;;;1.10;;
1811;SDS011;904;47.814;11.134;2023-04-28T10:47:10;3.23;;;1.33;;
1811;SDS011;904;47.814;11.134;2023-04-28T10:55:29;1.70;;;0.80;;
1811;SDS011;904;47.814;11.134;2023-04-28T11:03:52;2.47;;;0.80;;
1811;SDS011;904;47.814;11.134;2023-04-28T11:06:24;1.80;;;0.80;;
1811;SDS011;904;47.814;11.134;2023-04-28T11:08:53;1.73;;;0.70;;
1811;SDS011;904;47.814;11.134;2023-04-28T11:11:22;1.70;;;0.80;;
1811;SDS011;904;47.814;11.134;2023-04-28T11:13:51;1.90;;;0.80;;
1811;SDS011;904;47.814;11.134;2023-04-28T11:16:22;1.90;;;0.87;;
1811;SDS011;904;47.814;11.134;2023-04-28T11:18:54;2.67;;;1.43;;
1811;SDS011;904;47.814;11.134;2023-04-28T11:21:23;1.90;;;0.90;;
1811;SDS011;904;47.814;11.134;2023-04-28T11:23:53;1.60;;;0.67;;
1811;SDS011;904;47.814;11.134;2023-04-28T11:26:21;2.27;;;1.20;;
1811;SDS011;904;47.814;11.134;2023-04-28T11:28:49;1.97;;;0.90;;
1811;SDS011;904;47.814;11.134;2023-04-28T11:31:17;3.00;;;2.00;;
1811;SDS011;904;47.814;11.134;2023-04-28T11:33:51;3.70;;;1.47;;
1811;SDS011;904;47.814;11.134;2023-04-28T11:36:22;2.23;;;1.20;;
1811;SDS011;904;47.814;11.134;2023-04-28T11:38:55;2.20;;;1.30;;
1811;SDS011;904;47.814;11.134;2023-04-28T11:41:22;1.90;;;1.10;;
1811;SDS011;904;47.814;11.134;2023-04-28T11:43:51;2.50;;;1.17;;
1811;SDS011;904;47.814;11.134;2023-04-28T11:46:19;1.93;;;0.90;;
1811;SDS011;904;47.814;11.134;2023-04-28T11:48:47;2.10;;;0.90;;
1811;SDS011;904;47.814;11.134;2023-04-28T11:51:28;2.37;;;1.10;;
1811;SDS011;904;47.814;11.134;2023-04-28T11:53:58;1.80;;;0.90;;
1811;SDS011;904;47.814;11.134;2023-04-28T11:56:26;5.53;;;0.93;;
1811;SDS011;904;47.814;11.134;2023-04-28T11:58:59;1.80;;;0.60;;
1811;SDS011;904;47.814;11.134;2023-04-28T12:01:28;1.80;;;1.00;;
1811;SDS011;904;47.814;11.134;2023-04-28T12:03:55;2.67;;;0.80;;
1811;SDS011;904;47.814;11.134;2023-04-28T12:06:22;2.60;;;1.40;;
1811;SDS011;904;47.814;11.134;2023-04-28T12:08:49;2.80;;;1.00;;
1811;SDS011;904;47.814;11.134;2023-04-28T12:11:18;2.70;;;1.10;;
1811;SDS011;904;47.814;11.134;2023-04-28T12:16:38;1.93;;;0.90;;
1811;SDS011;904;47.814;11.134;2023-04-28T12:19:08;2.00;;;0.80;;
1811;SDS011;904;47.814;11.134;2023-04-28T12:21:36;2.67;;;0.83;;
1811;SDS011;904;47.814;11.134;2023-04-28T12:24:16;1.80;;;0.60;;
1811;SDS011;904;47.814;11.134;2023-04-28T12:26:46;3.30;;;0.80;;
1811;SDS011;904;47.814;11.134;2023-04-28T12:32:03;2.43;;;1.23;;
1811;SDS011;904;47.814;11.134;2023-04-28T12:34:34;5.10;;;1.03;;
1811;SDS011;904;47.814;11.134;2023-04-28T12:37:02;2.60;;;1.60;;
1811;SDS011;904;47.814;11.134;2023-04-28T12:39:30;2.43;;;1.10;;
1811;SDS011;904;47.814;11.134;2023-04-28T12:41:59;2.03;;;1.27;;
1811;SDS011;904;47.814;11.134;2023-04-28T12:44:27;3.30;;;0.83;;
1811;SDS011;904;47.814;11.134;2023-04-28T12:46:59;1.87;;;0.87;;
1811;SDS011;904;47.814;11.134;2023-04-28T12:49:27;2.47;;;1.00;;
1811;SDS011;904;47.814;11.134;2023-04-28T12:51:54;1.93;;;0.83;;
1811;SDS011;904;47.814;11.134;2023-04-28T12:54:21;1.70;;;0.60;;
1811;SDS011;904;47.814;11.134;2023-04-28T12:56:48;1.90;;;0.80;;
1811;SDS011;904;47.814;11.134;2023-04-28T12:59:16;1.90;;;1.03;;
1811;SDS011;904;47.814;11.134;2023-04-28T13:01:43;2.23;;;0.90;;
1811;SDS011;904;47.814;11.134;2023-04-28T13:04:11;2.00;;;0.80;;
1811;SDS011;904;47.814;11.134;2023-04-28T13:06:38;1.80;;;0.80;;
1811;SDS011;904;47.814;11.134;2023-04-28T13:09:08;1.50;;;0.60;;
1811;SDS011;904;47.814;11.134;2023-04-28T13:11:35;1.80;;;1.00;;
1811;SDS011;904;47.814;11.134;2023-04-28T13:14:02;1.90;;;1.00;;
1811;SDS011;904;47.814;11.134;2023-04-28T13:16:31;2.17;;;1.00;;
1811;SDS011;904;47.814;11.134;2023-04-28T13:18:58;1.90;;;0.87;;
1811;SDS011;904;47.814;11.134;2023-04-28T13:21:25;3.23;;;1.00;;
1811;SDS011;904;47.814;11.134;2023-04-28T13:23:53;1.80;;;0.70;;
1811;SDS011;904;47.814;11.134;2023-04-28T13:26:20;1.67;;;0.80;;
1811;SDS011;904;47.814;11.134;2023-04-28T13:28:49;2.20;;;0.80;;
1811;SDS011;904;47.814;11.134;2023-04-28T13:31:16;2.43;;;0.90;;
1811;SDS011;904;47.814;11.134;2023-04-28T13:33:59;5.47;;;0.93;;
1811;SDS011;904;47.814;11.134;2023-04-28T13:36:26;3.23;;;1.13;;
1811;SDS011;904;47.814;11.134;2023-04-28T13:38:54;2.43;;;0.90;;
1811;SDS011;904;47.814;11.134;2023-04-28T13:41:22;2.70;;;1.03;;
1811;SDS011;904;47.814;11.134;2023-04-28T13:43:50;2.23;;;1.20;;
1811;SDS011;904;47.814;11.134;2023-04-28T13:46:17;2.70;;;0.70;;
1811;SDS011;904;47.814;11.134;2023-04-28T13:48:44;2.00;;;1.00;;
1811;SDS011;904;47.814;11.134;2023-04-28T13:51:13;2.30;;;1.30;;
1811;SDS011;904;47.814;11.134;2023-04-28T13:53:40;2.70;;;1.63;;
1811;SDS011;904;47.814;11.134;2023-04-28T13:56:07;1.97;;;0.93;;
1811;SDS011;904;47.814;11.134;2023-04-28T13:58:34;1.90;;;0.70;;
1811;SDS011;904;47.814;11.134;2023-04-28T14:01:02;2.60;;;1.20;;
1811;SDS011;904;47.814;11.134;2023-04-28T14:03:29;2.67;;;1.20;;
1811;SDS011;904;47.814;11.134;2023-04-28T14:05:56;2.80;;;1.17;;
1811;SDS011;904;47.814;11.134;2023-04-28T14:08:26;2.43;;;1.20;;
1811;SDS011;904;47.814;11.134;2023-04-28T14:10:53;1.70;;;0.70;;
1811;SDS011;904;47.814;11.134;2023-04-28T14:13:20;2.00;;;1.00;;
1811;SDS011;904;47.814;11.134;2023-04-28T14:15:49;3.17;;;1.20;;
1811;SDS011;904;47.814;11.134;2023-04-28T14:18:17;2.43;;;1.50;;
1811;SDS011;904;47.814;11.134;2023-04-28T14:20:45;2.17;;;1.43;;
1811;SDS011;904;47.814;11.134;2023-04-28T14:23:13;2.33;;;1.37;;
1811;SDS011;904;47.814;11.134;2023-04-28T14:25:41;2.50;;;1.50;;
1811;SDS011;904;47.814;11.134;2023-04-28T14:28:08;3.30;;;1.50;;
1811;SDS011;904;47.814;11.134;2023-04-28T14:30:35;2.57;;;1.30;;
1811;SDS011;904;47.814;11.134;2023-04-28T14:33:02;2.70;;;1.23;;
1811;SDS011;904;47.814;11.134;2023-04-28T14:35:29;2.47;;;1.00;;
1811;SDS011;904;47.814;11.134;2023-04-28T14:37:57;2.57;;;1.53;;
1811;SDS011;904;47.814;11.134;2023-04-28T14:40:24;2.10;;;1.23;;
1811;SDS011;904;47.814;11.134;2023-04-28T14:42:52;6.20;;;1.80;;
1811;SDS011;904;47.814;11.134;2023-04-28T14:45:19;2.87;;;1.50;;
1811;SDS011;904;47.814;11.134;2023-04-28T14:47:46;3.40;;;1.43;;
1811;SDS011;904;47.814;11.134;2023-04-28T14:50:14;2.20;;;1.40;;
1811;SDS011;904;47.814;11.134;2023-04-28T14:52:40;3.13;;;1.60;;
1811;SDS011;904;47.814;11.134;2023-04-28T14:55:08;2.43;;;1.50;;
1811;SDS011;904;47.814;11.134;2023-04-28T14:57:35;2.90;;;1.20;;
1811;SDS011;904;47.814;11.134;2023-04-28T15:00:05;3.10;;;0.80;;
1811;SDS011;904;47.814;11.134;2023-04-28T15:02:32;2.53;;;1.53;;
1811;SDS011;904;47.814;11.134;2023-04-28T15:05:00;2.10;;;1.10;;
1811;SDS011;904;47.814;11.134;2023-04-28T15:07:29;2.27;;;1.20;;
1811;SDS011;904;47.814;11.134;2023-04-28T15:09:57;2.23;;;0.97;;
1811;SDS011;904;47.814;11.134;2023-04-28T15:12:25;2.77;;;1.20;;
1811;SDS011;904;47.814;11.134;2023-04-28T15:14:54;3.90;;;1.30;;
1811;SDS011;904;47.814;11.134;2023-04-28T15:17:23;8.80;;;2.10;;
1811;SDS011;904;47.814;11.134;2023-04-28T15:19:50;2.00;;;0.80;;
1811;SDS011;904;47.814;11.134;2023-04-28T15:22:17;1.93;;;0.90;;
1811;SDS011;904;47.814;11.134;2023-04-28T15:24:44;1.83;;;0.90;;
1811;SDS011;904;47.814;11.134;2023-04-28T15:27:11;2.00;;;0.90;;
1811;SDS011;904;47.814;11.134;2023-04-28T15:29:38;2.13;;;1.07;;
1811;SDS011;904;47.814;11.134;2023-04-28T15:32:05;2.00;;;0.70;;
1811;SDS011;904;47.814;11.134;2023-04-28T15:34:33;1.97;;;1.17;;
1811;SDS011;904;47.814;11.134;2023-04-28T15:37:00;5.20;;;1.60;;
1811;SDS011;904;47.814;11.134;2023-04-28T15:39:30;2.90;;;1.60;;
1811;SDS011;904;47.814;11.134;2023-04-28T15:41:57;3.77;;;1.10;;
1811;SDS011;904;47.814;11.134;2023-04-28T15:44:24;3.43;;;1.10;;
1811;SDS011;904;47.814;11.134;2023-04-28T15:46:51;3.60;;;1.37;;
1811;SDS011;904;47.814;11.134;2023-04-28T15:49:18;2.23;;;0.87;;